createdAt,value
2019-04-05T00:00:35.714Z,42.87
2019-04-05T00:05:38.500Z,49.90
2019-04-05T00:10:41.195Z,51.87
2019-04-05T00:15:45.113Z,50.60
2019-04-05T00:20:47.798Z,53.57
2019-04-05T00:25:50.517Z,42.00
2019-04-05T00:30:53.302Z,47.97
2019-04-05T00:35:55.987Z,53.90
2019-04-05T00:40:58.683Z,47.97
2019-04-05T00:46:01.385Z,47.20
2019-04-05T00:51:04.185Z,49.67
2019-04-05T00:56:06.892Z,51.30
2019-04-05T01:01:09.569Z,44.70
2019-04-05T01:06:13.555Z,51.17
2019-04-05T01:11:16.508Z,46.73
2019-04-05T01:16:19.281Z,44.57
2019-04-05T01:21:24.372Z,43.13
2019-04-05T01:26:27.963Z,40.37
2019-04-05T01:31:30.637Z,46.47
2019-04-05T01:36:33.319Z,42.13
2019-04-05T01:41:36.316Z,50.40
2019-04-05T01:46:39.594Z,42.90
2019-04-05T01:51:42.857Z,43.47
2019-04-05T01:56:45.542Z,51.27
2019-04-05T02:01:48.626Z,50.70
2019-04-05T02:06:51.411Z,59.50
2019-04-05T02:11:54.305Z,41.83
2019-04-05T02:16:56.988Z,38.40
2019-04-05T02:21:59.700Z,47.90
2019-04-05T02:27:02.380Z,39.23
2019-04-05T02:32:05.070Z,45.70
2019-04-05T02:37:07.751Z,39.13
2019-04-05T02:42:11.765Z,38.80
2019-04-05T02:47:14.760Z,36.20
2019-04-05T02:52:20.457Z,46.03
2019-04-05T02:57:24.651Z,45.60
2019-04-05T03:02:28.754Z,43.87
2019-04-05T03:07:31.429Z,44.80
2019-04-05T03:12:35.241Z,47.20
2019-04-05T03:17:38.332Z,47.47
2019-04-05T03:22:41.025Z,47.53
2019-04-05T03:27:44.315Z,51.60
2019-04-05T03:32:47.741Z,47.93
2019-04-05T03:37:51.015Z,63.57
2019-04-05T03:42:53.807Z,46.67
2019-04-05T03:47:58.233Z,43.27
2019-04-05T03:53:00.932Z,50.63
2019-04-05T03:58:04.011Z,53.93
2019-04-05T04:03:06.798Z,43.80
2019-04-05T04:08:10.084Z,55.70
2019-04-05T04:13:12.789Z,49.43
2019-04-05T04:18:15.958Z,48.40
2019-04-05T04:23:22.447Z,39.83
2019-04-05T04:28:25.647Z,54.23
2019-04-05T04:33:28.899Z,54.03
2019-04-05T04:38:32.011Z,52.67
2019-04-05T04:43:35.381Z,44.57
2019-04-05T04:48:39.258Z,56.97
2019-04-05T04:53:42.475Z,45.70
2019-04-05T04:58:46.386Z,64.83
2019-04-05T05:03:49.586Z,44.70
2019-04-05T05:08:52.691Z,52.20
2019-04-05T05:13:55.582Z,41.27
2019-04-05T05:18:59.021Z,36.47
2019-04-05T05:24:01.718Z,39.93
2019-04-05T05:29:04.828Z,45.83
2019-04-05T05:34:07.925Z,41.37
2019-04-05T05:39:10.716Z,41.73
2019-04-05T05:44:13.434Z,38.97
2019-04-05T05:49:16.155Z,30.10
2019-04-05T05:54:18.849Z,36.77
2019-04-05T05:59:21.596Z,40.53
2019-04-05T06:04:24.299Z,43.73
2019-04-05T06:09:26.985Z,33.13
2019-04-05T06:14:29.670Z,39.17
2019-04-05T06:19:32.386Z,32.10
2019-04-05T06:24:35.094Z,38.30
2019-04-05T06:29:37.811Z,43.17
2019-04-05T06:34:40.512Z,40.87
2019-04-05T06:39:43.277Z,40.10
2019-04-05T06:44:45.955Z,36.83
2019-04-05T06:49:48.664Z,43.70
2019-04-05T06:54:51.369Z,37.83
2019-04-05T06:59:54.082Z,35.17
2019-04-05T07:04:56.897Z,50.23
2019-04-05T07:09:59.590Z,36.63
2019-04-05T07:15:02.344Z,32.37
2019-04-05T07:20:05.207Z,35.00
2019-04-05T07:25:07.892Z,39.90
2019-04-05T07:30:11.204Z,36.70
2019-04-05T07:36:12.333Z,36.07
2019-04-05T07:41:15.043Z,36.13
2019-04-05T07:46:17.733Z,37.30
2019-04-05T07:51:22.663Z,33.40
2019-04-05T07:56:25.341Z,42.60
2019-04-05T08:01:28.040Z,36.70
2019-04-05T08:06:33.350Z,30.27
2019-04-05T08:11:37.765Z,41.60
2019-04-05T08:16:40.622Z,30.50
2019-04-05T08:21:43.318Z,36.07
2019-04-05T08:26:46.027Z,32.37
2019-04-05T08:31:48.738Z,34.50
2019-04-05T08:36:51.438Z,34.93
2019-04-05T08:41:54.135Z,39.00
2019-04-05T08:46:56.831Z,36.60
2019-04-05T08:51:59.529Z,41.93
2019-04-05T08:57:02.225Z,36.20
2019-04-05T09:02:04.927Z,31.67
2019-04-05T09:07:07.629Z,31.47
2019-04-05T09:12:10.362Z,31.00
2019-04-05T09:17:13.064Z,34.93
2019-04-05T09:22:15.780Z,31.17
2019-04-05T09:27:18.485Z,29.00
2019-04-05T09:32:21.190Z,30.70
2019-04-05T09:37:23.884Z,32.67
2019-04-05T09:42:26.582Z,32.77
2019-04-05T09:47:29.280Z,31.10
2019-04-05T09:52:31.973Z,29.03
2019-04-05T09:57:34.672Z,30.47
2019-04-05T10:02:37.375Z,29.60
2019-04-05T10:07:53.885Z,31.57
2019-04-05T10:12:44.758Z,30.30
2019-04-05T10:17:47.440Z,25.47
2019-04-05T10:22:50.137Z,31.90
2019-04-05T10:27:52.842Z,25.50
2019-04-05T10:32:55.521Z,42.63
2019-04-05T10:37:58.577Z,29.47
2019-04-05T10:43:01.418Z,32.37
2019-04-05T10:48:04.124Z,32.70
2019-04-05T10:53:06.965Z,37.73
2019-04-05T10:58:09.837Z,27.87
2019-04-05T11:03:12.538Z,33.27
2019-04-05T11:08:15.238Z,29.50
2019-04-05T11:13:17.934Z,31.23
2019-04-05T11:18:20.630Z,35.07
2019-04-05T11:23:23.318Z,203.93
2019-04-05T11:28:26.010Z,44.03
2019-04-05T11:33:28.843Z,33.93
2019-04-05T11:38:31.534Z,31.70
2019-04-05T11:43:35.136Z,39.23
2019-04-05T11:48:41.095Z,31.43
2019-04-05T11:53:42.762Z,29.57
2019-04-05T11:58:48.792Z,29.83
2019-04-05T12:03:51.750Z,38.73
2019-04-05T12:08:54.441Z,33.57
2019-04-05T12:13:58.735Z,31.93
2019-04-05T12:19:04.490Z,37.33
2019-04-05T12:24:06.038Z,36.83
2019-04-05T12:29:08.814Z,32.03
2019-04-05T12:34:11.511Z,35.23
2019-04-05T12:39:14.207Z,36.87
2019-04-05T12:44:16.894Z,29.93
2019-04-05T12:49:19.698Z,37.93
2019-04-05T12:54:22.407Z,33.30
2019-04-05T12:59:25.928Z,35.57
2019-04-05T13:04:28.803Z,30.13
2019-04-05T13:09:31.499Z,30.50
2019-04-05T13:14:34.309Z,44.13
2019-04-05T13:19:37.007Z,34.63
2019-04-05T13:24:40.390Z,36.17
2019-04-05T13:29:43.310Z,42.50
2019-04-05T13:34:46.007Z,41.53
2019-04-05T13:39:48.697Z,40.67
2019-04-05T13:44:51.391Z,39.93
2019-04-05T13:49:54.093Z,36.80
2019-04-05T13:54:56.789Z,38.37
2019-04-05T13:59:59.502Z,42.17
2019-04-05T14:05:02.204Z,42.33
2019-04-05T14:10:05.747Z,38.30
2019-04-05T14:15:11.240Z,50.17
2019-04-05T14:20:14.140Z,46.07
2019-04-05T14:25:16.939Z,38.90
2019-04-05T14:30:19.643Z,46.80
2019-04-05T14:35:24.517Z,40.37
2019-04-05T14:40:28.874Z,42.57
2019-04-05T14:45:31.515Z,62.90
2019-04-05T14:50:34.211Z,50.03
2019-04-05T14:55:36.905Z,44.43
2019-04-05T15:00:39.619Z,60.83
2019-04-05T15:05:42.410Z,49.20
2019-04-05T15:10:45.106Z,51.93
2019-04-05T15:15:47.798Z,45.80
2019-04-05T15:20:50.486Z,39.07
2019-04-05T15:25:53.220Z,46.53
2019-04-05T15:30:56.593Z,46.07
2019-04-05T15:36:02.952Z,44.37
2019-04-05T15:41:04.029Z,48.50
2019-04-05T15:46:06.747Z,57.10
2019-04-05T15:51:09.762Z,43.60
2019-04-05T15:56:12.562Z,54.77
2019-04-05T16:01:15.830Z,49.93
2019-04-05T16:06:18.520Z,55.57
2019-04-05T16:11:21.233Z,49.37
2019-04-05T16:16:23.935Z,50.63
2019-04-05T16:21:26.640Z,53.70
2019-04-05T16:26:29.387Z,60.33
2019-04-05T16:31:32.087Z,53.30
2019-04-05T16:36:34.874Z,85.70
2019-04-05T16:41:37.565Z,58.77
2019-04-05T16:46:40.262Z,67.57
2019-04-05T16:51:42.972Z,77.83
2019-04-05T16:56:45.661Z,65.43
2019-04-05T17:01:48.487Z,68.73
2019-04-05T17:06:51.176Z,62.00
2019-04-05T17:11:53.904Z,66.37
2019-04-05T17:16:56.623Z,59.80
2019-04-05T17:21:59.322Z,59.40
2019-04-05T17:27:02.054Z,71.10
2019-04-05T17:32:04.742Z,67.87
2019-04-05T17:37:07.441Z,74.87
2019-04-05T17:42:10.131Z,65.40
2019-04-05T17:47:12.819Z,62.80
2019-04-05T17:52:15.912Z,83.23
2019-04-05T17:57:18.909Z,72.37
2019-04-05T18:02:21.608Z,85.00
2019-04-05T18:07:24.313Z,90.90
2019-04-05T18:12:27.021Z,89.33
2019-04-05T18:17:29.738Z,70.80
2019-04-05T18:22:32.423Z,74.10
2019-04-05T18:27:35.124Z,81.67
2019-04-05T18:32:37.836Z,83.87
2019-04-05T18:37:40.541Z,88.70
2019-04-05T18:42:43.261Z,81.33
2019-04-05T18:47:45.964Z,93.00
2019-04-05T18:52:48.663Z,82.53
2019-04-05T18:57:51.367Z,76.83
2019-04-05T19:02:54.094Z,80.03
2019-04-05T19:07:56.872Z,80.63
2019-04-05T19:13:00.475Z,78.57
2019-04-05T19:18:03.338Z,92.43
2019-04-05T19:23:06.137Z,87.33
2019-04-05T19:28:09.695Z,83.37
2019-04-05T19:53:29.169Z,100.60
2019-04-05T19:58:31.862Z,85.70
2019-04-05T20:03:34.588Z,86.70
2019-04-05T20:08:37.358Z,85.73
2019-04-05T20:13:40.105Z,90.73
2019-04-05T20:18:43.002Z,104.47
2019-04-05T20:23:47.714Z,95.10
2019-04-05T20:28:50.300Z,92.77
2019-04-05T20:33:53.129Z,95.30
2019-04-05T20:38:55.830Z,76.57
2019-04-05T20:43:58.531Z,103.57
2019-04-05T20:49:01.223Z,95.70
2019-04-05T20:54:04.592Z,97.07
2019-04-05T20:59:07.484Z,87.93
2019-04-05T21:04:10.177Z,100.23
2019-04-05T21:09:12.881Z,94.67
2019-04-05T21:14:15.573Z,86.07
2019-04-05T21:19:18.269Z,89.43
2019-04-05T21:24:21.191Z,98.97
2019-04-05T21:29:23.876Z,89.80
2019-04-05T21:34:26.697Z,108.80
2019-04-05T21:39:29.587Z,90.90
2019-04-05T21:44:32.261Z,101.73
2019-04-05T21:49:34.962Z,109.27
2019-04-05T21:54:47.131Z,132.57
2019-04-05T21:59:42.257Z,155.20
2019-04-05T22:04:44.965Z,156.37
2019-04-05T22:09:47.665Z,149.27
2019-04-05T22:14:50.361Z,157.30
2019-04-05T22:19:53.067Z,133.23
2019-04-05T22:24:59.480Z,142.77
2019-04-05T22:30:00.368Z,158.77
2019-04-05T22:35:03.245Z,117.70
2019-04-05T22:40:06.436Z,167.17
2019-04-05T22:45:09.943Z,148.10
2019-04-05T22:50:13.137Z,163.63
2019-04-05T22:55:15.833Z,145.47
2019-04-05T23:00:18.567Z,138.17
2019-04-05T23:05:21.260Z,148.30
2019-04-05T23:10:23.952Z,169.10
2019-04-05T23:15:26.640Z,162.73
2019-04-05T23:20:29.342Z,152.40
2019-04-05T23:25:32.059Z,160.33
2019-04-05T23:30:34.754Z,145.80
2019-04-05T23:35:37.444Z,161.33
2019-04-05T23:40:40.165Z,161.60
2019-04-05T23:45:42.857Z,155.27
2019-04-05T23:50:45.548Z,175.00
2019-04-05T23:55:48.244Z,168.83
